Moore, Montana
Current Conditions -  °F | °C
As of 6:54 PM on Saturday 22 Nov 2014 (Local Time) from KLWT Reporting Station
Overcast Overcast  
Wind Chill: 28°   Ceiling: 6500
Heat Index: 39°   Visibility: 10mi
Dew Point: 18°   Wind: 23mph
Humidity: 43%   Direction: 290°WNW
Pressure: 29.5"   Gusts: 35mph
Location:  46.98°N, 109.7°W
Report Text: KLWT 230154Z AUTO 29020G30KT 10SM OVC065 04/M08 A2950 RMK AO2 PK WND 29031/0105 SLP992 T00391078
Loading
Personal Weather Stations






























Interactive Weather Map New forecast layout! Learn more

10-Day Weather Forecast

Advertisements
Track Severe Weather on mobile